createdAt,value
2018-11-07T00:01:37.808Z,13.11
2018-11-07T00:04:08.492Z,13.07
2018-11-07T00:06:39.130Z,13.08
2018-11-07T00:09:10.173Z,13.07
2018-11-07T00:11:40.776Z,13.05
2018-11-07T00:14:11.416Z,13.07
2018-11-07T00:16:42.096Z,13.02
2018-11-07T00:19:12.727Z,12.96
2018-11-07T00:21:43.432Z,12.95
2018-11-07T00:24:14.685Z,12.99
2018-11-07T00:26:45.436Z,13.00
2018-11-07T00:29:16.114Z,13.03
2018-11-07T00:31:46.731Z,13.05
2018-11-07T00:34:17.373Z,13.01
2018-11-07T00:36:48.007Z,13.01
2018-11-07T00:39:18.653Z,12.94
2018-11-07T00:41:49.290Z,13.00
2018-11-07T00:44:19.900Z,12.95
2018-11-07T00:46:50.630Z,13.02
2018-11-07T00:49:21.262Z,12.98
2018-11-07T00:51:51.972Z,12.99
2018-11-07T00:54:22.655Z,13.03
2018-11-07T00:56:53.324Z,13.09
2018-11-07T00:59:23.999Z,13.13
2018-11-07T01:01:54.673Z,13.11
2018-11-07T01:04:25.305Z,13.02
2018-11-07T01:06:56.289Z,13.11
2018-11-07T01:09:26.905Z,13.05
2018-11-07T01:11:57.543Z,12.98
2018-11-07T01:14:28.210Z,13.14
2018-11-07T01:16:58.878Z,13.20
2018-11-07T01:19:29.484Z,13.19
2018-11-07T01:22:00.175Z,13.19
2018-11-07T01:24:30.795Z,13.14
2018-11-07T01:27:01.481Z,13.21
2018-11-07T01:29:32.144Z,13.17
2018-11-07T01:32:02.850Z,13.21
2018-11-07T01:34:33.508Z,13.19
2018-11-07T01:37:04.244Z,13.22
2018-11-07T01:39:34.954Z,13.22
2018-11-07T01:42:05.985Z,13.29
2018-11-07T01:44:36.632Z,13.19
2018-11-07T01:47:07.317Z,13.15
2018-11-07T01:49:38.012Z,13.17
2018-11-07T01:52:08.762Z,13.14
2018-11-07T01:54:39.375Z,13.14
2018-11-07T01:57:10.063Z,13.10
2018-11-07T01:59:40.701Z,13.22
2018-11-07T02:02:11.415Z,13.10
2018-11-07T02:04:42.041Z,13.26
2018-11-07T02:07:12.733Z,13.19
2018-11-07T02:09:43.435Z,13.17
2018-11-07T02:12:14.095Z,13.16
2018-11-07T02:14:44.720Z,13.07
2018-11-07T02:17:15.380Z,13.00
2018-11-07T02:19:46.110Z,12.96
2018-11-07T02:22:16.755Z,12.95
2018-11-07T02:24:47.419Z,12.90
2018-11-07T02:27:18.051Z,12.86
2018-11-07T02:29:48.701Z,12.88
2018-11-07T02:32:19.376Z,12.91
2018-11-07T02:34:50.063Z,12.89
2018-11-07T02:37:20.691Z,12.82
2018-11-07T02:39:51.355Z,12.76
2018-11-07T02:42:21.996Z,12.73
2018-11-07T02:44:52.611Z,12.62
2018-11-07T02:47:23.246Z,12.58
2018-11-07T02:49:53.961Z,12.59
2018-11-07T02:52:24.606Z,12.56
2018-11-07T02:54:55.284Z,12.54
2018-11-07T02:57:25.931Z,12.55
2018-11-07T02:59:56.605Z,12.51
2018-11-07T03:02:27.312Z,12.48
2018-11-07T03:04:58.040Z,12.50
2018-11-07T03:07:28.728Z,12.46
2018-11-07T03:09:59.363Z,12.50
2018-11-07T03:12:30.041Z,12.48
2018-11-07T03:15:00.723Z,12.47
2018-11-07T03:17:31.377Z,12.45
2018-11-07T03:20:02.052Z,12.48
2018-11-07T03:22:32.650Z,12.45
2018-11-07T03:25:03.335Z,12.51
2018-11-07T03:27:33.946Z,12.53
2018-11-07T03:30:05.404Z,12.47
2018-11-07T03:32:36.059Z,12.56
2018-11-07T03:35:11.560Z,12.48
2018-11-07T03:37:42.257Z,12.50
2018-11-07T03:40:12.991Z,12.37
2018-11-07T03:42:43.731Z,12.46
2018-11-07T03:45:14.404Z,12.54
2018-11-07T03:47:45.008Z,12.48
2018-11-07T03:50:15.632Z,12.42
2018-11-07T03:52:46.311Z,12.53
2018-11-07T03:55:16.937Z,12.51
2018-11-07T03:57:47.540Z,12.41
2018-11-07T04:00:18.201Z,12.43
2018-11-07T04:02:48.809Z,12.41
2018-11-07T04:05:19.551Z,12.37
2018-11-07T04:07:50.158Z,12.30
2018-11-07T04:10:20.796Z,12.31
2018-11-07T04:12:51.535Z,12.22
2018-11-07T04:15:22.218Z,12.22
2018-11-07T04:17:52.871Z,12.14
2018-11-07T04:20:23.460Z,12.09
2018-11-07T04:22:54.101Z,12.06
2018-11-07T04:25:24.769Z,11.98
2018-11-07T04:27:55.434Z,11.96
2018-11-07T04:30:26.114Z,11.97
2018-11-07T04:32:56.720Z,11.93
2018-11-07T04:35:27.371Z,11.92
2018-11-07T04:37:58.037Z,11.91
2018-11-07T04:40:28.620Z,11.98
2018-11-07T04:42:59.271Z,11.95
2018-11-07T04:45:29.909Z,11.91
2018-11-07T04:48:00.549Z,11.94
2018-11-07T04:50:31.163Z,11.87
2018-11-07T04:53:01.784Z,11.89
2018-11-07T04:55:32.448Z,11.92
2018-11-07T04:58:03.124Z,11.90
2018-11-07T05:00:33.770Z,11.87
2018-11-07T05:03:04.455Z,11.86
2018-11-07T05:05:35.088Z,11.84
2018-11-07T05:08:05.787Z,11.79
2018-11-07T05:10:36.443Z,11.75
2018-11-07T05:13:07.116Z,11.73
2018-11-07T05:15:37.794Z,11.66
2018-11-07T05:18:08.468Z,11.67
2018-11-07T05:20:39.064Z,11.57
2018-11-07T05:23:09.724Z,11.61
2018-11-07T05:25:40.376Z,11.53
2018-11-07T05:28:11.120Z,11.55
2018-11-07T05:30:41.738Z,11.48
2018-11-07T05:33:12.388Z,11.49
2018-11-07T05:35:43.028Z,11.41
2018-11-07T05:38:13.696Z,11.45
2018-11-07T05:40:44.302Z,11.45
2018-11-07T05:43:14.970Z,11.37
2018-11-07T05:45:45.655Z,11.40
2018-11-07T05:48:16.287Z,11.37
2018-11-07T05:50:46.945Z,11.34
2018-11-07T05:53:17.642Z,11.32
2018-11-07T05:55:48.380Z,11.30
2018-11-07T05:58:19.015Z,11.31
2018-11-07T06:00:49.696Z,11.36
2018-11-07T06:03:20.413Z,11.36
2018-11-07T06:05:51.073Z,11.39
2018-11-07T06:08:21.735Z,11.41
2018-11-07T06:10:52.388Z,11.42
2018-11-07T06:13:23.017Z,11.38
2018-11-07T06:15:53.673Z,11.38
2018-11-07T06:18:24.359Z,11.39
2018-11-07T06:20:55.000Z,11.37
2018-11-07T06:23:25.627Z,11.39
2018-11-07T06:25:56.571Z,11.43
2018-11-07T06:28:27.209Z,11.42
2018-11-07T06:30:58.113Z,11.40
2018-11-07T06:33:28.767Z,11.40
2018-11-07T06:35:59.430Z,11.40
2018-11-07T06:38:30.067Z,11.40
2018-11-07T06:41:00.703Z,11.35
2018-11-07T06:43:31.348Z,11.37
2018-11-07T06:46:02.116Z,11.37
2018-11-07T06:48:32.830Z,11.32
2018-11-07T06:51:03.538Z,11.41
2018-11-07T06:53:34.195Z,11.63
2018-11-07T06:56:04.826Z,11.77
2018-11-07T06:58:35.460Z,11.91
2018-11-07T07:01:06.178Z,12.07
2018-11-07T07:03:36.782Z,12.21
2018-11-07T07:06:07.628Z,12.41
2018-11-07T07:08:38.430Z,12.63
2018-11-07T07:11:09.227Z,12.78
2018-11-07T07:13:40.012Z,13.09
2018-11-07T07:16:10.667Z,13.59
2018-11-07T07:18:41.328Z,14.01
2018-11-07T07:21:11.959Z,14.96
2018-11-07T07:23:42.692Z,15.80
2018-11-07T07:26:13.387Z,16.68
2018-11-07T07:28:44.076Z,17.07
2018-11-07T07:31:14.763Z,18.22
2018-11-07T07:33:45.524Z,19.19
2018-11-07T07:36:16.129Z,19.37
2018-11-07T07:38:46.824Z,19.77
2018-11-07T07:41:17.553Z,20.84
2018-11-07T07:43:48.205Z,21.39
2018-11-07T07:46:18.941Z,20.75
2018-11-07T07:48:49.622Z,20.08
2018-11-07T07:51:20.323Z,20.69
2018-11-07T07:53:51.067Z,20.63
2018-11-07T07:56:21.768Z,21.13
2018-11-07T07:58:52.424Z,20.56
2018-11-07T08:01:23.108Z,21.50
2018-11-07T08:03:53.788Z,20.81
2018-11-07T08:06:24.421Z,21.63
2018-11-07T08:08:55.085Z,21.78
2018-11-07T08:11:25.726Z,21.79
2018-11-07T08:13:56.457Z,21.52
2018-11-07T08:16:27.102Z,20.69
2018-11-07T08:18:57.733Z,21.19
2018-11-07T08:21:28.357Z,21.25
2018-11-07T08:23:59.020Z,21.20
2018-11-07T08:26:29.769Z,21.49
2018-11-07T08:29:00.716Z,20.91
2018-11-07T08:31:31.660Z,20.05
2018-11-07T08:34:02.324Z,20.92
2018-11-07T08:36:33.003Z,20.79
2018-11-07T08:39:04.358Z,20.64
2018-11-07T08:41:34.979Z,20.54
2018-11-07T08:44:05.908Z,20.08
2018-11-07T08:46:36.608Z,19.50
2018-11-07T08:49:08.122Z,19.54
2018-11-07T08:51:38.782Z,19.23
2018-11-07T08:54:09.481Z,20.51
2018-11-07T08:56:40.245Z,19.52
2018-11-07T08:59:10.912Z,20.00
2018-11-07T09:01:41.562Z,19.66
2018-11-07T09:04:12.392Z,19.97
2018-11-07T09:06:43.076Z,19.93
2018-11-07T09:09:13.738Z,20.37
2018-11-07T09:11:44.423Z,21.03
2018-11-07T09:14:15.052Z,22.43
2018-11-07T09:16:45.727Z,20.97
2018-11-07T09:19:16.355Z,19.94
2018-11-07T09:21:47.020Z,20.16
2018-11-07T09:24:17.792Z,20.10
2018-11-07T09:26:48.526Z,19.54
2018-11-07T09:29:19.231Z,20.52
2018-11-07T09:31:49.844Z,20.39
2018-11-07T09:34:20.558Z,20.33
2018-11-07T09:36:51.221Z,20.08
2018-11-07T09:39:21.974Z,20.42
2018-11-07T09:41:52.694Z,19.18
2018-11-07T09:44:23.469Z,19.77
2018-11-07T09:46:54.124Z,19.63
2018-11-07T09:49:24.818Z,19.61
2018-11-07T09:51:55.535Z,19.21
2018-11-07T09:54:26.252Z,18.67
2018-11-07T09:56:56.914Z,18.54
2018-11-07T09:59:27.586Z,19.04
2018-11-07T10:01:58.288Z,19.39
2018-11-07T10:04:28.935Z,19.57
2018-11-07T10:06:59.688Z,18.91
2018-11-07T10:09:30.431Z,18.93
2018-11-07T10:12:01.109Z,18.39
2018-11-07T10:14:31.861Z,18.41
2018-11-07T10:17:02.571Z,18.93
2018-11-07T10:20:36.405Z,18.84
2018-11-07T10:23:07.149Z,19.53
2018-11-07T10:25:37.870Z,19.54
2018-11-07T10:28:09.021Z,19.46
2018-11-07T10:30:39.339Z,19.53
2018-11-07T10:33:10.008Z,19.99
2018-11-07T10:35:40.649Z,19.23
2018-11-07T10:38:11.425Z,19.35
2018-11-07T10:40:42.149Z,19.67
2018-11-07T10:43:12.847Z,19.96
2018-11-07T10:45:43.496Z,19.88
2018-11-07T10:48:14.218Z,19.58
2018-11-07T10:50:44.913Z,19.12
2018-11-07T10:53:15.582Z,18.90
2018-11-07T10:55:46.261Z,18.53
2018-11-07T10:58:17.050Z,18.24
2018-11-07T11:00:52.978Z,17.78
2018-11-07T11:03:28.932Z,17.44
2018-11-07T11:05:59.846Z,17.61
2018-11-07T11:08:30.509Z,18.06
2018-11-07T11:11:01.351Z,18.30
2018-11-07T11:13:32.015Z,18.56
2018-11-07T11:16:02.680Z,18.76
2018-11-07T11:18:33.338Z,18.92
2018-11-07T11:21:04.038Z,19.42
2018-11-07T11:23:34.743Z,19.64
2018-11-07T11:26:05.550Z,19.68
2018-11-07T11:28:36.304Z,19.37
2018-11-07T11:31:07.038Z,19.18
2018-11-07T11:33:37.756Z,18.81
2018-11-07T11:36:14.427Z,18.72
2018-11-07T11:38:45.077Z,18.33
2018-11-07T11:41:15.902Z,18.22
2018-11-07T11:43:46.532Z,18.20
2018-11-07T11:46:17.211Z,18.22
2018-11-07T11:48:47.914Z,17.82
2018-11-07T11:51:18.554Z,17.68
2018-11-07T11:53:49.253Z,17.53
2018-11-07T11:56:19.917Z,17.59
2018-11-07T11:58:50.651Z,17.60
2018-11-07T12:01:21.264Z,17.62
2018-11-07T12:03:51.935Z,17.66
2018-11-07T12:06:22.665Z,18.29
2018-11-07T12:08:53.368Z,18.90
2018-11-07T12:11:24.149Z,19.31
2018-11-07T12:13:54.788Z,19.36
2018-11-07T12:16:25.465Z,19.40
2018-11-07T12:18:56.077Z,19.38
2018-11-07T12:21:26.815Z,19.35
2018-11-07T12:23:57.404Z,19.34
2018-11-07T12:26:28.083Z,19.26
2018-11-07T12:28:58.864Z,19.43
2018-11-07T12:31:29.520Z,19.39
2018-11-07T12:34:00.141Z,18.96
2018-11-07T12:36:31.004Z,18.65
2018-11-07T12:39:01.723Z,18.55
2018-11-07T12:41:32.517Z,18.36
2018-11-07T12:44:03.328Z,18.25
2018-11-07T12:46:34.084Z,18.30
2018-11-07T12:49:04.882Z,18.57
2018-11-07T12:51:35.656Z,19.02
2018-11-07T12:54:06.501Z,19.12
2018-11-07T12:56:37.258Z,19.00
2018-11-07T12:59:08.161Z,18.99
2018-11-07T13:01:38.848Z,18.82
2018-11-07T13:04:09.568Z,18.38
2018-11-07T13:06:40.252Z,18.38
2018-11-07T13:09:12.432Z,18.30
2018-11-07T13:11:43.310Z,18.33
2018-11-07T13:14:14.039Z,18.71
2018-11-07T13:16:44.783Z,18.98
2018-11-07T13:19:15.390Z,19.07
2018-11-07T13:21:46.103Z,19.10
2018-11-07T13:24:16.752Z,19.18
2018-11-07T13:26:47.460Z,19.24
2018-11-07T13:29:18.174Z,19.12
2018-11-07T13:31:48.967Z,19.20
2018-11-07T13:34:19.751Z,19.04
2018-11-07T13:36:50.589Z,19.05
2018-11-07T13:39:21.529Z,19.14
2018-11-07T13:41:51.877Z,18.97
2018-11-07T13:44:22.597Z,18.82
2018-11-07T13:46:53.231Z,18.98
2018-11-07T13:49:23.904Z,19.20
2018-11-07T13:51:54.629Z,19.20
2018-11-07T13:54:25.357Z,19.09
2018-11-07T13:56:56.154Z,18.97
2018-11-07T13:59:26.910Z,18.86
2018-11-07T14:01:57.654Z,18.92
2018-11-07T14:04:28.429Z,18.49
2018-11-07T14:06:59.475Z,18.38
2018-11-07T14:09:30.122Z,18.19
2018-11-07T14:12:00.844Z,18.05
2018-11-07T14:14:31.513Z,17.92
2018-11-07T14:17:02.340Z,17.91
2018-11-07T14:19:33.654Z,17.79
2018-11-07T14:22:04.372Z,17.66
2018-11-07T14:24:35.171Z,17.62
2018-11-07T14:27:05.983Z,17.50
2018-11-07T14:29:36.871Z,17.46
2018-11-07T14:32:07.728Z,17.35
2018-11-07T14:34:38.910Z,17.30
2018-11-07T14:37:09.543Z,17.17
2018-11-07T14:39:40.286Z,17.15
2018-11-07T14:42:11.100Z,17.08
2018-11-07T14:44:41.819Z,17.05
2018-11-07T14:47:12.578Z,16.92
2018-11-07T14:49:43.178Z,16.90
2018-11-07T14:52:13.958Z,16.87
2018-11-07T14:54:44.644Z,16.86
2018-11-07T14:57:15.351Z,16.78
2018-11-07T14:59:46.052Z,16.69
2018-11-07T15:02:16.788Z,16.66
2018-11-07T15:04:47.542Z,16.59
2018-11-07T15:07:18.251Z,16.63
2018-11-07T15:09:48.911Z,16.58
2018-11-07T15:12:19.573Z,16.50
2018-11-07T15:14:50.212Z,16.49
2018-11-07T15:17:20.874Z,16.48
2018-11-07T15:19:51.563Z,16.43
2018-11-07T15:22:22.526Z,16.34
2018-11-07T15:24:53.213Z,16.27
2018-11-07T15:27:23.852Z,16.31
2018-11-07T15:29:54.470Z,16.36
2018-11-07T15:32:25.152Z,16.30
2018-11-07T15:34:55.793Z,16.27
2018-11-07T15:37:26.540Z,16.20
2018-11-07T15:39:57.232Z,16.18
2018-11-07T15:42:28.474Z,16.17
2018-11-07T15:44:59.202Z,16.10
2018-11-07T15:47:29.919Z,16.05
2018-11-07T15:51:07.316Z,16.06
2018-11-07T15:53:38.127Z,15.94
2018-11-07T15:56:09.174Z,15.91
2018-11-07T15:58:39.849Z,15.93
2018-11-07T16:01:10.544Z,15.85
2018-11-07T16:03:46.419Z,15.95
2018-11-07T16:06:18.503Z,15.90
2018-11-07T16:08:49.086Z,15.86
2018-11-07T16:11:19.696Z,15.81
2018-11-07T16:13:50.475Z,15.81
2018-11-07T16:16:21.065Z,15.82
2018-11-07T16:18:51.819Z,15.83
2018-11-07T16:21:22.560Z,15.76
2018-11-07T16:23:53.500Z,15.72
2018-11-07T16:26:24.257Z,15.52
2018-11-07T16:28:54.998Z,15.62
2018-11-07T16:31:25.601Z,15.56
2018-11-07T16:33:56.277Z,15.39
2018-11-07T16:36:26.875Z,15.32
2018-11-07T16:38:57.479Z,15.32
2018-11-07T16:41:28.319Z,15.16
2018-11-07T16:43:58.784Z,15.08
2018-11-07T16:46:29.450Z,15.03
2018-11-07T16:49:00.138Z,15.00
2018-11-07T16:51:30.771Z,14.88
2018-11-07T16:54:01.492Z,14.80
2018-11-07T16:56:32.154Z,14.75
2018-11-07T16:59:02.957Z,14.62
2018-11-07T17:01:33.539Z,14.55
2018-11-07T17:04:04.223Z,14.55
2018-11-07T17:06:34.876Z,14.53
2018-11-07T17:09:07.643Z,14.43
2018-11-07T17:11:38.730Z,14.48
2018-11-07T17:14:10.257Z,14.39
2018-11-07T17:16:40.852Z,14.39
2018-11-07T17:19:11.537Z,14.40
2018-11-07T17:21:42.151Z,14.34
2018-11-07T17:24:13.003Z,14.24
2018-11-07T17:26:43.648Z,14.22
2018-11-07T17:29:14.252Z,14.18
2018-11-07T17:31:44.967Z,14.15
2018-11-07T17:34:15.706Z,14.15
2018-11-07T17:36:46.393Z,14.05
2018-11-07T17:39:17.028Z,14.14
2018-11-07T17:41:47.804Z,14.05
2018-11-07T17:44:18.541Z,14.08
2018-11-07T17:46:49.172Z,14.04
2018-11-07T17:49:19.847Z,14.00
2018-11-07T17:51:50.826Z,14.05
2018-11-07T17:54:21.465Z,14.05
2018-11-07T17:56:52.142Z,14.06
2018-11-07T17:59:22.866Z,14.02
2018-11-07T18:01:53.546Z,14.08
2018-11-07T18:04:24.179Z,14.01
2018-11-07T18:06:54.846Z,14.03
2018-11-07T18:09:25.469Z,14.00
2018-11-07T18:11:57.801Z,14.02
2018-11-07T18:14:28.500Z,14.00
2018-11-07T18:16:59.134Z,14.01
2018-11-07T18:19:29.841Z,14.02
2018-11-07T18:22:00.501Z,14.02
2018-11-07T18:24:31.147Z,13.91
2018-11-07T18:27:01.950Z,13.91
2018-11-07T18:29:32.681Z,13.98
2018-11-07T18:32:03.427Z,13.99
2018-11-07T18:34:36.236Z,14.00
2018-11-07T18:37:07.835Z,13.99
2018-11-07T18:39:38.953Z,13.99
2018-11-07T18:42:09.708Z,13.97
2018-11-07T18:44:40.380Z,13.99
2018-11-07T18:47:11.169Z,13.97
2018-11-07T18:49:42.075Z,13.91
2018-11-07T18:52:12.725Z,13.91
2018-11-07T18:54:43.376Z,13.92
2018-11-07T18:57:14.040Z,13.85
2018-11-07T18:59:44.664Z,13.86
2018-11-07T19:02:15.322Z,13.86
2018-11-07T19:04:45.984Z,13.81
2018-11-07T19:07:16.625Z,13.89
2018-11-07T19:09:48.277Z,13.75
2018-11-07T19:12:18.965Z,13.79
2018-11-07T19:14:49.626Z,13.85
2018-11-07T19:17:20.375Z,13.88
2018-11-07T19:19:51.141Z,13.90
2018-11-07T19:22:21.755Z,13.80
2018-11-07T19:24:52.524Z,13.89
2018-11-07T19:27:23.303Z,13.90
2018-11-07T19:29:53.846Z,13.92
2018-11-07T19:32:24.504Z,13.90
2018-11-07T19:34:55.172Z,13.91
2018-11-07T19:37:25.787Z,13.89
2018-11-07T19:39:56.486Z,13.89
2018-11-07T19:42:27.301Z,13.89
2018-11-07T19:44:57.930Z,13.85
2018-11-07T19:47:28.643Z,13.87
2018-11-07T19:49:59.294Z,13.74
2018-11-07T19:52:30.039Z,13.86
2018-11-07T19:55:00.741Z,13.86
2018-11-07T19:57:31.399Z,13.88
2018-11-07T20:00:02.148Z,13.82
2018-11-07T20:02:33.607Z,14.12
2018-11-07T20:05:04.416Z,14.12
2018-11-07T20:07:35.313Z,14.00
2018-11-07T20:10:08.492Z,13.94
2018-11-07T20:12:39.332Z,13.91
2018-11-07T20:15:11.915Z,13.95
2018-11-07T20:17:42.639Z,13.91
2018-11-07T20:20:13.699Z,13.90
2018-11-07T20:22:44.471Z,13.97
2018-11-07T20:25:15.707Z,13.92
2018-11-07T20:27:46.466Z,13.92
2018-11-07T20:30:18.748Z,13.92
2018-11-07T20:32:49.447Z,13.86
2018-11-07T20:35:21.078Z,13.91
2018-11-07T20:37:51.743Z,13.84
2018-11-07T20:40:23.100Z,13.87
2018-11-07T20:42:53.845Z,13.83
2018-11-07T20:45:24.551Z,13.82
2018-11-07T20:47:55.277Z,13.79
2018-11-07T20:50:25.923Z,13.76
2018-11-07T20:52:56.572Z,13.68
2018-11-07T20:55:27.255Z,13.80
2018-11-07T20:57:58.012Z,13.80
2018-11-07T21:00:28.725Z,13.70
2018-11-07T21:02:59.390Z,13.73
2018-11-07T21:05:30.126Z,13.75
2018-11-07T21:08:00.766Z,13.78
2018-11-07T21:10:31.429Z,13.76
2018-11-07T21:13:02.050Z,13.79
2018-11-07T21:15:32.777Z,13.81
2018-11-07T21:18:03.418Z,13.77
2018-11-07T21:20:34.125Z,13.80
2018-11-07T21:23:04.897Z,13.74
2018-11-07T21:25:35.570Z,13.81
2018-11-07T21:28:06.208Z,13.79
2018-11-07T21:30:36.943Z,13.71
2018-11-07T21:33:07.603Z,13.76
2018-11-07T21:35:38.366Z,13.79
2018-11-07T21:38:09.047Z,13.71
2018-11-07T21:40:39.701Z,13.73
2018-11-07T21:43:10.329Z,13.69
2018-11-07T21:45:40.997Z,13.73
2018-11-07T21:48:11.699Z,13.66
2018-11-07T21:50:42.319Z,13.61
2018-11-07T21:53:12.957Z,13.65
2018-11-07T21:55:43.608Z,13.66
2018-11-07T21:58:14.341Z,13.66
2018-11-07T22:00:44.944Z,13.60
2018-11-07T22:03:15.643Z,13.56
2018-11-07T22:05:46.364Z,13.58
2018-11-07T22:08:16.999Z,13.58
2018-11-07T22:10:47.682Z,13.56
2018-11-07T22:13:18.466Z,13.62
2018-11-07T22:15:49.035Z,13.52
2018-11-07T22:18:19.766Z,13.53
2018-11-07T22:20:50.408Z,13.55
2018-11-07T22:23:21.087Z,13.55
2018-11-07T22:25:51.740Z,13.58
2018-11-07T22:28:22.488Z,13.59
2018-11-07T22:30:53.130Z,13.54
2018-11-07T22:33:23.767Z,13.49
2018-11-07T22:35:54.424Z,13.56
2018-11-07T22:38:25.031Z,13.56
2018-11-07T22:40:55.669Z,13.49
2018-11-07T22:43:26.322Z,13.52
2018-11-07T22:45:57.023Z,13.49
2018-11-07T22:48:27.644Z,13.55
2018-11-07T22:50:58.313Z,13.51
2018-11-07T22:53:29.026Z,13.45
2018-11-07T22:55:59.907Z,13.33
2018-11-07T22:58:30.613Z,13.35
2018-11-07T23:01:06.536Z,13.45
2018-11-07T23:03:37.295Z,13.40
2018-11-07T23:06:07.989Z,13.46
2018-11-07T23:08:38.674Z,13.37
2018-11-07T23:11:09.433Z,13.40
2018-11-07T23:13:40.058Z,13.28
2018-11-07T23:16:10.703Z,13.35
2018-11-07T23:18:41.535Z,13.21
2018-11-07T23:21:12.309Z,13.30
2018-11-07T23:23:42.904Z,13.26
2018-11-07T23:26:13.558Z,13.19
2018-11-07T23:28:44.172Z,13.24
2018-11-07T23:31:14.839Z,13.24
2018-11-07T23:33:45.485Z,13.19
2018-11-07T23:36:16.130Z,13.18
2018-11-07T23:38:46.850Z,13.10
2018-11-07T23:41:17.505Z,13.21
2018-11-07T23:43:48.376Z,13.14
2018-11-07T23:46:19.168Z,13.18
2018-11-07T23:48:49.826Z,13.20
2018-11-07T23:51:20.455Z,13.19
2018-11-07T23:53:51.112Z,13.07
2018-11-07T23:56:21.802Z,13.10
2018-11-07T23:58:52.511Z,13.18
